sensor_id;sensor_type;location;lat;lon;timestamp;P1;durP1;ratioP1;P2;durP2;ratioP2
21128;SDS011;10722;51.910;8.352;2022-07-23T00:02:35;18.67;;;9.90;;
21128;SDS011;10722;51.910;8.352;2022-07-23T00:05:21;19.25;;;10.57;;
21128;SDS011;10722;51.910;8.352;2022-07-23T00:08:06;18.75;;;10.80;;
21128;SDS011;10722;51.910;8.352;2022-07-23T00:10:58;21.55;;;11.48;;
21128;SDS011;10722;51.910;8.352;2022-07-23T00:13:44;19.92;;;9.85;;
21128;SDS011;10722;51.910;8.352;2022-07-23T00:16:29;19.55;;;9.60;;
21128;SDS011;10722;51.910;8.352;2022-07-23T00:19:14;20.40;;;9.82;;
21128;SDS011;10722;51.910;8.352;2022-07-23T00:22:00;16.98;;;8.90;;
21128;SDS011;10722;51.910;8.352;2022-07-23T00:24:45;19.00;;;8.73;;
21128;SDS011;10722;51.910;8.352;2022-07-23T00:27:50;19.58;;;8.93;;
21128;SDS011;10722;51.910;8.352;2022-07-23T00:30:36;16.00;;;8.57;;
21128;SDS011;10722;51.910;8.352;2022-07-23T00:33:21;15.82;;;8.32;;
21128;SDS011;10722;51.910;8.352;2022-07-23T00:36:07;17.55;;;8.57;;
21128;SDS011;10722;51.910;8.352;2022-07-23T00:38:52;15.43;;;8.10;;
21128;SDS011;10722;51.910;8.352;2022-07-23T00:41:38;17.60;;;8.95;;
21128;SDS011;10722;51.910;8.352;2022-07-23T00:44:24;18.30;;;9.35;;
21128;SDS011;10722;51.910;8.352;2022-07-23T00:47:11;16.10;;;8.93;;
21128;SDS011;10722;51.910;8.352;2022-07-23T00:49:56;17.77;;;8.80;;
21128;SDS011;10722;51.910;8.352;2022-07-23T00:52:41;17.65;;;9.15;;
21128;SDS011;10722;51.910;8.352;2022-07-23T00:55:27;18.70;;;8.40;;
21128;SDS011;10722;51.910;8.352;2022-07-23T00:58:12;16.33;;;8.27;;
21128;SDS011;10722;51.910;8.352;2022-07-23T01:00:58;19.70;;;8.50;;
21128;SDS011;10722;51.910;8.352;2022-07-23T01:03:43;21.55;;;9.13;;
21128;SDS011;10722;51.910;8.352;2022-07-23T01:06:29;16.05;;;8.88;;
21128;SDS011;10722;51.910;8.352;2022-07-23T01:09:20;19.52;;;9.13;;
21128;SDS011;10722;51.910;8.352;2022-07-23T01:12:05;19.98;;;9.43;;
21128;SDS011;10722;51.910;8.352;2022-07-23T01:14:55;18.35;;;8.98;;
21128;SDS011;10722;51.910;8.352;2022-07-23T01:17:42;17.17;;;9.05;;
21128;SDS011;10722;51.910;8.352;2022-07-23T01:20:27;16.25;;;9.35;;
21128;SDS011;10722;51.910;8.352;2022-07-23T01:23:12;19.15;;;10.05;;
21128;SDS011;10722;51.910;8.352;2022-07-23T01:25:58;20.83;;;9.98;;
21128;SDS011;10722;51.910;8.352;2022-07-23T01:28:43;18.67;;;10.00;;
21128;SDS011;10722;51.910;8.352;2022-07-23T01:31:29;22.42;;;10.93;;
21128;SDS011;10722;51.910;8.352;2022-07-23T01:34:15;19.92;;;10.82;;
21128;SDS011;10722;51.910;8.352;2022-07-23T01:37:01;20.58;;;11.10;;
21128;SDS011;10722;51.910;8.352;2022-07-23T01:39:46;23.40;;;12.57;;
21128;SDS011;10722;51.910;8.352;2022-07-23T01:42:32;23.70;;;12.52;;
21128;SDS011;10722;51.910;8.352;2022-07-23T01:45:19;23.23;;;13.43;;
21128;SDS011;10722;51.910;8.352;2022-07-23T01:48:04;22.00;;;13.15;;
21128;SDS011;10722;51.910;8.352;2022-07-23T01:50:55;25.17;;;13.52;;
21128;SDS011;10722;51.910;8.352;2022-07-23T01:53:40;25.35;;;14.43;;
21128;SDS011;10722;51.910;8.352;2022-07-23T01:56:25;22.13;;;12.48;;
21128;SDS011;10722;51.910;8.352;2022-07-23T01:59:11;28.88;;;12.95;;
21128;SDS011;10722;51.910;8.352;2022-07-23T02:01:56;23.63;;;13.35;;
21128;SDS011;10722;51.910;8.352;2022-07-23T02:04:41;21.40;;;12.32;;
21128;SDS011;10722;51.910;8.352;2022-07-23T02:07:26;22.75;;;11.90;;
21128;SDS011;10722;51.910;8.352;2022-07-23T02:10:16;22.02;;;11.30;;
21128;SDS011;10722;51.910;8.352;2022-07-23T02:13:02;21.38;;;11.02;;
21128;SDS011;10722;51.910;8.352;2022-07-23T02:15:47;22.30;;;14.20;;
21128;SDS011;10722;51.910;8.352;2022-07-23T02:18:32;20.55;;;12.27;;
21128;SDS011;10722;51.910;8.352;2022-07-23T02:21:18;23.67;;;11.18;;
21128;SDS011;10722;51.910;8.352;2022-07-23T02:24:03;27.48;;;13.15;;
21128;SDS011;10722;51.910;8.352;2022-07-23T02:26:49;25.42;;;13.50;;
21128;SDS011;10722;51.910;8.352;2022-07-23T02:29:34;23.27;;;12.27;;
21128;SDS011;10722;51.910;8.352;2022-07-23T02:32:20;21.02;;;12.00;;
21128;SDS011;10722;51.910;8.352;2022-07-23T02:35:05;22.80;;;12.77;;
21128;SDS011;10722;51.910;8.352;2022-07-23T02:37:51;22.50;;;12.35;;
21128;SDS011;10722;51.910;8.352;2022-07-23T02:40:36;23.75;;;12.95;;
21128;SDS011;10722;51.910;8.352;2022-07-23T02:43:22;22.48;;;13.15;;
21128;SDS011;10722;51.910;8.352;2022-07-23T02:46:07;22.30;;;13.40;;
21128;SDS011;10722;51.910;8.352;2022-07-23T02:48:53;20.70;;;12.38;;
21128;SDS011;10722;51.910;8.352;2022-07-23T02:51:38;22.23;;;11.85;;
21128;SDS011;10722;51.910;8.352;2022-07-23T02:54:23;20.13;;;11.45;;
21128;SDS011;10722;51.910;8.352;2022-07-23T02:57:09;19.20;;;11.80;;
21128;SDS011;10722;51.910;8.352;2022-07-23T02:59:54;21.30;;;12.20;;
21128;SDS011;10722;51.910;8.352;2022-07-23T03:02:40;22.25;;;12.52;;
21128;SDS011;10722;51.910;8.352;2022-07-23T03:05:25;20.95;;;12.02;;
21128;SDS011;10722;51.910;8.352;2022-07-23T03:08:10;21.38;;;12.45;;
21128;SDS011;10722;51.910;8.352;2022-07-23T03:10:56;22.60;;;12.63;;
21128;SDS011;10722;51.910;8.352;2022-07-23T03:13:41;22.77;;;11.60;;
21128;SDS011;10722;51.910;8.352;2022-07-23T03:16:26;20.95;;;11.70;;
21128;SDS011;10722;51.910;8.352;2022-07-23T03:19:12;20.60;;;12.10;;
21128;SDS011;10722;51.910;8.352;2022-07-23T03:21:57;22.05;;;12.27;;
21128;SDS011;10722;51.910;8.352;2022-07-23T03:24:44;27.98;;;13.55;;
21128;SDS011;10722;51.910;8.352;2022-07-23T03:27:29;22.65;;;12.38;;
21128;SDS011;10722;51.910;8.352;2022-07-23T03:30:15;21.50;;;12.75;;
21128;SDS011;10722;51.910;8.352;2022-07-23T03:32:59;25.02;;;13.50;;
21128;SDS011;10722;51.910;8.352;2022-07-23T03:35:45;25.50;;;13.55;;
21128;SDS011;10722;51.910;8.352;2022-07-23T03:38:32;21.85;;;11.93;;
21128;SDS011;10722;51.910;8.352;2022-07-23T03:41:17;21.80;;;13.32;;
21128;SDS011;10722;51.910;8.352;2022-07-23T03:44:03;24.90;;;13.20;;
21128;SDS011;10722;51.910;8.352;2022-07-23T03:46:48;21.42;;;13.63;;
21128;SDS011;10722;51.910;8.352;2022-07-23T03:49:33;21.67;;;13.73;;
21128;SDS011;10722;51.910;8.352;2022-07-23T03:52:19;22.00;;;12.10;;
21128;SDS011;10722;51.910;8.352;2022-07-23T03:55:04;26.55;;;12.73;;
21128;SDS011;10722;51.910;8.352;2022-07-23T03:57:50;24.75;;;13.57;;
21128;SDS011;10722;51.910;8.352;2022-07-23T04:00:35;20.48;;;11.85;;
21128;SDS011;10722;51.910;8.352;2022-07-23T04:03:21;18.90;;;11.25;;
21128;SDS011;10722;51.910;8.352;2022-07-23T04:06:06;19.70;;;10.55;;
21128;SDS011;10722;51.910;8.352;2022-07-23T04:08:51;19.42;;;11.27;;
21128;SDS011;10722;51.910;8.352;2022-07-23T04:11:36;19.92;;;12.02;;
21128;SDS011;10722;51.910;8.352;2022-07-23T04:14:22;20.08;;;11.52;;
21128;SDS011;10722;51.910;8.352;2022-07-23T04:17:07;20.75;;;12.20;;
21128;SDS011;10722;51.910;8.352;2022-07-23T04:19:52;26.08;;;12.65;;
21128;SDS011;10722;51.910;8.352;2022-07-23T04:22:38;26.35;;;11.68;;
21128;SDS011;10722;51.910;8.352;2022-07-23T04:25:23;21.60;;;11.18;;
21128;SDS011;10722;51.910;8.352;2022-07-23T04:28:09;19.27;;;11.63;;
21128;SDS011;10722;51.910;8.352;2022-07-23T04:30:58;19.75;;;11.05;;
21128;SDS011;10722;51.910;8.352;2022-07-23T04:33:43;19.50;;;11.65;;
21128;SDS011;10722;51.910;8.352;2022-07-23T04:36:29;21.05;;;11.88;;
21128;SDS011;10722;51.910;8.352;2022-07-23T04:39:14;19.42;;;11.02;;
21128;SDS011;10722;51.910;8.352;2022-07-23T04:41:59;19.95;;;10.73;;
21128;SDS011;10722;51.910;8.352;2022-07-23T04:44:44;18.27;;;11.48;;
21128;SDS011;10722;51.910;8.352;2022-07-23T04:47:30;20.05;;;11.60;;
21128;SDS011;10722;51.910;8.352;2022-07-23T04:50:16;19.92;;;10.70;;
21128;SDS011;10722;51.910;8.352;2022-07-23T04:53:01;19.77;;;10.95;;
21128;SDS011;10722;51.910;8.352;2022-07-23T04:55:47;23.63;;;13.63;;
21128;SDS011;10722;51.910;8.352;2022-07-23T04:58:32;20.88;;;12.55;;
21128;SDS011;10722;51.910;8.352;2022-07-23T05:01:17;24.25;;;13.75;;
21128;SDS011;10722;51.910;8.352;2022-07-23T05:04:03;23.50;;;12.38;;
21128;SDS011;10722;51.910;8.352;2022-07-23T05:06:48;20.45;;;12.68;;
21128;SDS011;10722;51.910;8.352;2022-07-23T05:09:34;20.08;;;12.57;;
21128;SDS011;10722;51.910;8.352;2022-07-23T05:12:19;22.80;;;12.43;;
21128;SDS011;10722;51.910;8.352;2022-07-23T05:15:04;20.88;;;11.85;;
21128;SDS011;10722;51.910;8.352;2022-07-23T05:17:50;21.50;;;12.10;;
21128;SDS011;10722;51.910;8.352;2022-07-23T05:20:35;20.45;;;11.75;;
21128;SDS011;10722;51.910;8.352;2022-07-23T05:23:20;19.48;;;11.05;;
21128;SDS011;10722;51.910;8.352;2022-07-23T05:26:05;20.30;;;11.48;;
21128;SDS011;10722;51.910;8.352;2022-07-23T05:28:51;19.20;;;11.73;;
21128;SDS011;10722;51.910;8.352;2022-07-23T05:31:36;19.80;;;10.70;;
21128;SDS011;10722;51.910;8.352;2022-07-23T05:34:22;21.73;;;11.82;;
21128;SDS011;10722;51.910;8.352;2022-07-23T05:37:07;21.65;;;12.40;;
21128;SDS011;10722;51.910;8.352;2022-07-23T05:39:52;23.42;;;11.85;;
21128;SDS011;10722;51.910;8.352;2022-07-23T05:42:38;20.17;;;11.10;;
21128;SDS011;10722;51.910;8.352;2022-07-23T05:45:24;22.17;;;10.98;;
21128;SDS011;10722;51.910;8.352;2022-07-23T05:48:09;20.73;;;10.80;;
21128;SDS011;10722;51.910;8.352;2022-07-23T05:50:54;21.00;;;11.20;;
21128;SDS011;10722;51.910;8.352;2022-07-23T05:53:39;22.70;;;13.27;;
21128;SDS011;10722;51.910;8.352;2022-07-23T05:56:25;20.75;;;10.70;;
21128;SDS011;10722;51.910;8.352;2022-07-23T05:59:10;22.38;;;11.13;;
21128;SDS011;10722;51.910;8.352;2022-07-23T06:01:56;20.50;;;10.73;;
21128;SDS011;10722;51.910;8.352;2022-07-23T06:04:41;18.77;;;11.15;;
21128;SDS011;10722;51.910;8.352;2022-07-23T06:07:26;18.58;;;10.52;;
21128;SDS011;10722;51.910;8.352;2022-07-23T06:10:12;21.02;;;9.90;;
21128;SDS011;10722;51.910;8.352;2022-07-23T06:12:57;18.60;;;9.68;;
21128;SDS011;10722;51.910;8.352;2022-07-23T06:15:47;19.10;;;9.55;;
21128;SDS011;10722;51.910;8.352;2022-07-23T06:18:32;20.60;;;8.80;;
21128;SDS011;10722;51.910;8.352;2022-07-23T06:21:17;18.90;;;9.00;;
21128;SDS011;10722;51.910;8.352;2022-07-23T06:24:22;19.27;;;8.43;;
21128;SDS011;10722;51.910;8.352;2022-07-23T06:27:08;17.75;;;8.80;;
21128;SDS011;10722;51.910;8.352;2022-07-23T06:29:53;18.20;;;8.18;;
21128;SDS011;10722;51.910;8.352;2022-07-23T06:32:39;19.80;;;7.57;;
21128;SDS011;10722;51.910;8.352;2022-07-23T06:35:24;19.02;;;7.40;;
21128;SDS011;10722;51.910;8.352;2022-07-23T06:38:09;18.55;;;7.65;;
21128;SDS011;10722;51.910;8.352;2022-07-23T06:40:54;16.45;;;7.05;;
21128;SDS011;10722;51.910;8.352;2022-07-23T06:43:40;18.42;;;9.50;;
21128;SDS011;10722;51.910;8.352;2022-07-23T06:46:25;15.38;;;6.72;;
21128;SDS011;10722;51.910;8.352;2022-07-23T06:49:11;17.05;;;7.05;;
21128;SDS011;10722;51.910;8.352;2022-07-23T06:51:57;15.85;;;7.90;;
21128;SDS011;10722;51.910;8.352;2022-07-23T06:54:42;14.63;;;6.72;;
21128;SDS011;10722;51.910;8.352;2022-07-23T06:57:28;14.45;;;6.97;;
21128;SDS011;10722;51.910;8.352;2022-07-23T07:00:16;16.83;;;7.45;;
21128;SDS011;10722;51.910;8.352;2022-07-23T07:03:02;15.50;;;7.78;;
21128;SDS011;10722;51.910;8.352;2022-07-23T07:05:47;17.27;;;7.70;;
21128;SDS011;10722;51.910;8.352;2022-07-23T07:08:32;17.23;;;7.45;;
21128;SDS011;10722;51.910;8.352;2022-07-23T07:11:18;17.90;;;7.88;;
21128;SDS011;10722;51.910;8.352;2022-07-23T07:14:03;17.33;;;7.72;;
21128;SDS011;10722;51.910;8.352;2022-07-23T07:16:48;17.45;;;7.20;;
21128;SDS011;10722;51.910;8.352;2022-07-23T07:19:33;16.67;;;7.07;;
21128;SDS011;10722;51.910;8.352;2022-07-23T07:22:18;17.88;;;8.00;;
21128;SDS011;10722;51.910;8.352;2022-07-23T07:25:04;18.80;;;7.55;;
21128;SDS011;10722;51.910;8.352;2022-07-23T07:27:50;18.50;;;7.97;;
21128;SDS011;10722;51.910;8.352;2022-07-23T07:30:36;17.50;;;7.80;;
21128;SDS011;10722;51.910;8.352;2022-07-23T07:33:21;16.77;;;8.02;;
21128;SDS011;10722;51.910;8.352;2022-07-23T07:36:06;17.08;;;7.70;;
21128;SDS011;10722;51.910;8.352;2022-07-23T07:38:52;14.82;;;6.80;;
21128;SDS011;10722;51.910;8.352;2022-07-23T07:41:37;16.48;;;6.82;;
21128;SDS011;10722;51.910;8.352;2022-07-23T07:44:22;16.65;;;6.60;;
21128;SDS011;10722;51.910;8.352;2022-07-23T07:47:08;13.50;;;6.35;;
21128;SDS011;10722;51.910;8.352;2022-07-23T07:49:53;17.02;;;6.75;;
21128;SDS011;10722;51.910;8.352;2022-07-23T07:52:39;17.15;;;6.40;;
21128;SDS011;10722;51.910;8.352;2022-07-23T07:55:24;18.10;;;8.65;;
21128;SDS011;10722;51.910;8.352;2022-07-23T07:58:09;16.92;;;8.18;;
21128;SDS011;10722;51.910;8.352;2022-07-23T08:00:55;14.75;;;6.53;;
21128;SDS011;10722;51.910;8.352;2022-07-23T08:03:40;17.88;;;6.85;;
21128;SDS011;10722;51.910;8.352;2022-07-23T08:06:26;15.07;;;6.15;;
21128;SDS011;10722;51.910;8.352;2022-07-23T08:09:11;17.60;;;5.80;;
21128;SDS011;10722;51.910;8.352;2022-07-23T08:11:57;15.98;;;5.80;;
21128;SDS011;10722;51.910;8.352;2022-07-23T08:14:42;14.20;;;5.70;;
21128;SDS011;10722;51.910;8.352;2022-07-23T08:17:27;14.88;;;6.10;;
21128;SDS011;10722;51.910;8.352;2022-07-23T08:20:14;15.02;;;6.28;;
21128;SDS011;10722;51.910;8.352;2022-07-23T08:23:04;15.20;;;5.75;;
21128;SDS011;10722;51.910;8.352;2022-07-23T08:25:51;14.85;;;5.20;;
21128;SDS011;10722;51.910;8.352;2022-07-23T08:28:37;15.48;;;5.20;;
21128;SDS011;10722;51.910;8.352;2022-07-23T08:31:22;11.82;;;4.88;;
21128;SDS011;10722;51.910;8.352;2022-07-23T08:34:08;13.73;;;4.60;;
21128;SDS011;10722;51.910;8.352;2022-07-23T08:36:53;12.50;;;4.63;;
21128;SDS011;10722;51.910;8.352;2022-07-23T08:39:38;14.77;;;4.53;;
21128;SDS011;10722;51.910;8.352;2022-07-23T08:42:23;11.88;;;4.78;;
21128;SDS011;10722;51.910;8.352;2022-07-23T08:45:10;12.18;;;4.55;;
21128;SDS011;10722;51.910;8.352;2022-07-23T08:47:57;15.80;;;4.75;;
21128;SDS011;10722;51.910;8.352;2022-07-23T08:50:44;13.43;;;4.22;;
21128;SDS011;10722;51.910;8.352;2022-07-23T08:53:31;12.80;;;4.30;;
21128;SDS011;10722;51.910;8.352;2022-07-23T08:56:18;14.40;;;4.25;;
21128;SDS011;10722;51.910;8.352;2022-07-23T08:59:04;10.77;;;3.90;;
21128;SDS011;10722;51.910;8.352;2022-07-23T09:01:49;11.32;;;3.92;;
21128;SDS011;10722;51.910;8.352;2022-07-23T09:04:34;24.80;;;15.68;;
21128;SDS011;10722;51.910;8.352;2022-07-23T09:07:19;15.50;;;6.03;;
21128;SDS011;10722;51.910;8.352;2022-07-23T09:10:06;11.70;;;3.67;;
21128;SDS011;10722;51.910;8.352;2022-07-23T09:12:53;13.98;;;3.95;;
21128;SDS011;10722;51.910;8.352;2022-07-23T09:15:48;8.35;;;3.30;;
21128;SDS011;10722;51.910;8.352;2022-07-23T09:21:32;11.20;;;3.70;;
21128;SDS011;10722;51.910;8.352;2022-07-23T09:24:20;10.60;;;3.50;;
21128;SDS011;10722;51.910;8.352;2022-07-23T09:27:05;10.90;;;3.33;;
21128;SDS011;10722;51.910;8.352;2022-07-23T09:29:56;7.20;;;3.03;;
21128;SDS011;10722;51.910;8.352;2022-07-23T09:32:42;11.02;;;3.25;;
21128;SDS011;10722;51.910;8.352;2022-07-23T09:36:11;13.52;;;3.38;;
21128;SDS011;10722;51.910;8.352;2022-07-23T09:38:48;16.23;;;4.32;;
21128;SDS011;10722;51.910;8.352;2022-07-23T09:41:35;24.58;;;4.15;;
21128;SDS011;10722;51.910;8.352;2022-07-23T09:44:24;10.68;;;3.00;;
21128;SDS011;10722;51.910;8.352;2022-07-23T09:47:13;9.88;;;3.00;;
21128;SDS011;10722;51.910;8.352;2022-07-23T09:50:02;8.55;;;2.85;;
21128;SDS011;10722;51.910;8.352;2022-07-23T09:52:49;85.55;;;10.35;;
21128;SDS011;10722;51.910;8.352;2022-07-23T09:55:35;459.40;;;44.83;;
21128;SDS011;10722;51.910;8.352;2022-07-23T09:58:21;27.27;;;4.45;;
21128;SDS011;10722;51.910;8.352;2022-07-23T10:01:07;13.77;;;3.08;;
21128;SDS011;10722;51.910;8.352;2022-07-23T10:03:52;16.45;;;3.10;;
21128;SDS011;10722;51.910;8.352;2022-07-23T10:06:38;10.07;;;2.78;;
21128;SDS011;10722;51.910;8.352;2022-07-23T10:09:39;109.70;;;8.70;;
21128;SDS011;10722;51.910;8.352;2022-07-23T10:12:25;24.35;;;3.58;;
21128;SDS011;10722;51.910;8.352;2022-07-23T10:15:11;11.65;;;2.90;;
21128;SDS011;10722;51.910;8.352;2022-07-23T10:17:56;41.42;;;4.03;;
21128;SDS011;10722;51.910;8.352;2022-07-23T10:20:41;9.95;;;3.08;;
21128;SDS011;10722;51.910;8.352;2022-07-23T10:23:30;19.77;;;8.73;;
21128;SDS011;10722;51.910;8.352;2022-07-23T10:26:29;11.02;;;3.35;;
21128;SDS011;10722;51.910;8.352;2022-07-23T10:39:15;8.65;;;2.75;;
21128;SDS011;10722;51.910;8.352;2022-07-23T10:42:11;9.88;;;2.70;;
21128;SDS011;10722;51.910;8.352;2022-07-23T10:44:59;9.00;;;2.97;;
21128;SDS011;10722;51.910;8.352;2022-07-23T10:47:44;10.95;;;3.28;;
21128;SDS011;10722;51.910;8.352;2022-07-23T10:50:31;11.90;;;2.67;;
21128;SDS011;10722;51.910;8.352;2022-07-23T10:53:17;7.97;;;2.50;;
21128;SDS011;10722;51.910;8.352;2022-07-23T10:56:02;11.13;;;3.00;;
21128;SDS011;10722;51.910;8.352;2022-07-23T10:58:48;11.25;;;2.80;;
21128;SDS011;10722;51.910;8.352;2022-07-23T11:01:37;8.75;;;2.85;;
21128;SDS011;10722;51.910;8.352;2022-07-23T11:04:47;11.00;;;2.70;;
21128;SDS011;10722;51.910;8.352;2022-07-23T11:07:34;9.18;;;2.88;;
21128;SDS011;10722;51.910;8.352;2022-07-23T11:10:35;9.27;;;2.60;;
21128;SDS011;10722;51.910;8.352;2022-07-23T11:16:17;8.50;;;2.40;;
21128;SDS011;10722;51.910;8.352;2022-07-23T11:19:04;10.55;;;3.00;;
21128;SDS011;10722;51.910;8.352;2022-07-23T11:21:51;13.02;;;5.82;;
21128;SDS011;10722;51.910;8.352;2022-07-23T11:24:40;8.15;;;2.50;;
21128;SDS011;10722;51.910;8.352;2022-07-23T11:27:36;11.00;;;2.30;;
21128;SDS011;10722;51.910;8.352;2022-07-23T11:33:35;7.80;;;2.22;;
21128;SDS011;10722;51.910;8.352;2022-07-23T11:36:19;6.85;;;2.30;;
21128;SDS011;10722;51.910;8.352;2022-07-23T11:39:05;7.18;;;2.30;;
21128;SDS011;10722;51.910;8.352;2022-07-23T11:41:52;7.75;;;2.25;;
21128;SDS011;10722;51.910;8.352;2022-07-23T11:44:38;7.70;;;2.17;;
21128;SDS011;10722;51.910;8.352;2022-07-23T11:47:24;6.38;;;2.38;;
21128;SDS011;10722;51.910;8.352;2022-07-23T11:50:11;6.55;;;2.40;;
21128;SDS011;10722;51.910;8.352;2022-07-23T11:52:56;8.10;;;2.60;;
21128;SDS011;10722;51.910;8.352;2022-07-23T11:55:41;6.93;;;2.30;;
21128;SDS011;10722;51.910;8.352;2022-07-23T11:58:26;8.30;;;2.25;;
21128;SDS011;10722;51.910;8.352;2022-07-23T12:01:11;5.13;;;1.80;;
21128;SDS011;10722;51.910;8.352;2022-07-23T12:04:00;9.25;;;2.08;;
21128;SDS011;10722;51.910;8.352;2022-07-23T12:10:46;7.30;;;1.70;;
21128;SDS011;10722;51.910;8.352;2022-07-23T12:13:32;3.50;;;1.50;;
21128;SDS011;10722;51.910;8.352;2022-07-23T12:16:17;3.75;;;1.45;;
21128;SDS011;10722;51.910;8.352;2022-07-23T12:19:02;6.47;;;1.83;;
21128;SDS011;10722;51.910;8.352;2022-07-23T12:21:48;7.38;;;1.92;;
21128;SDS011;10722;51.910;8.352;2022-07-23T12:24:55;9.20;;;2.30;;
21128;SDS011;10722;51.910;8.352;2022-07-23T12:27:45;4.82;;;1.63;;
21128;SDS011;10722;51.910;8.352;2022-07-23T12:30:45;10.50;;;2.90;;
21128;SDS011;10722;51.910;8.352;2022-07-23T12:33:33;4.93;;;1.60;;
21128;SDS011;10722;51.910;8.352;2022-07-23T12:36:20;6.10;;;1.80;;
21128;SDS011;10722;51.910;8.352;2022-07-23T12:39:31;4.82;;;1.33;;
21128;SDS011;10722;51.910;8.352;2022-07-23T12:42:16;6.00;;;1.60;;
21128;SDS011;10722;51.910;8.352;2022-07-23T12:45:03;4.97;;;1.50;;
21128;SDS011;10722;51.910;8.352;2022-07-23T12:51:14;6.95;;;1.77;;
21128;SDS011;10722;51.910;8.352;2022-07-23T12:54:13;8.73;;;2.03;;
21128;SDS011;10722;51.910;8.352;2022-07-23T12:57:11;7.70;;;1.63;;
21128;SDS011;10722;51.910;8.352;2022-07-23T13:00:08;4.68;;;1.55;;
21128;SDS011;10722;51.910;8.352;2022-07-23T13:02:53;7.22;;;1.50;;
21128;SDS011;10722;51.910;8.352;2022-07-23T13:05:39;6.40;;;1.60;;
21128;SDS011;10722;51.910;8.352;2022-07-23T13:08:30;5.82;;;1.30;;
21128;SDS011;10722;51.910;8.352;2022-07-23T13:11:17;5.18;;;1.65;;
21128;SDS011;10722;51.910;8.352;2022-07-23T13:14:04;6.13;;;1.30;;
21128;SDS011;10722;51.910;8.352;2022-07-23T13:16:53;5.35;;;1.40;;
21128;SDS011;10722;51.910;8.352;2022-07-23T13:19:41;5.40;;;1.52;;
21128;SDS011;10722;51.910;8.352;2022-07-23T13:22:26;5.88;;;1.40;;
21128;SDS011;10722;51.910;8.352;2022-07-23T13:25:11;7.00;;;1.80;;
21128;SDS011;10722;51.910;8.352;2022-07-23T13:27:57;6.97;;;1.40;;
21128;SDS011;10722;51.910;8.352;2022-07-23T13:30:43;4.38;;;1.40;;
21128;SDS011;10722;51.910;8.352;2022-07-23T13:33:29;5.20;;;1.38;;
21128;SDS011;10722;51.910;8.352;2022-07-23T13:36:14;5.18;;;1.30;;
21128;SDS011;10722;51.910;8.352;2022-07-23T13:39:00;5.13;;;1.38;;
21128;SDS011;10722;51.910;8.352;2022-07-23T13:41:46;6.60;;;1.40;;
21128;SDS011;10722;51.910;8.352;2022-07-23T13:44:40;5.75;;;1.45;;
21128;SDS011;10722;51.910;8.352;2022-07-23T13:47:56;5.22;;;1.52;;
21128;SDS011;10722;51.910;8.352;2022-07-23T13:50:42;5.88;;;1.38;;
21128;SDS011;10722;51.910;8.352;2022-07-23T13:53:29;5.78;;;1.33;;
21128;SDS011;10722;51.910;8.352;2022-07-23T13:56:14;4.60;;;1.60;;
21128;SDS011;10722;51.910;8.352;2022-07-23T13:58:59;6.43;;;1.90;;
21128;SDS011;10722;51.910;8.352;2022-07-23T14:01:48;5.50;;;1.65;;
21128;SDS011;10722;51.910;8.352;2022-07-23T14:05:16;6.28;;;1.70;;
21128;SDS011;10722;51.910;8.352;2022-07-23T14:08:02;4.45;;;1.67;;
21128;SDS011;10722;51.910;8.352;2022-07-23T14:10:48;6.22;;;1.80;;
21128;SDS011;10722;51.910;8.352;2022-07-23T14:13:33;9.18;;;3.13;;
21128;SDS011;10722;51.910;8.352;2022-07-23T14:16:19;6.20;;;2.13;;
21128;SDS011;10722;51.910;8.352;2022-07-23T14:19:13;6.45;;;1.60;;
21128;SDS011;10722;51.910;8.352;2022-07-23T14:21:59;3.25;;;1.50;;
21128;SDS011;10722;51.910;8.352;2022-07-23T14:24:44;8.05;;;1.85;;
21128;SDS011;10722;51.910;8.352;2022-07-23T14:27:29;7.82;;;1.70;;
21128;SDS011;10722;51.910;8.352;2022-07-23T14:30:15;6.60;;;1.60;;
21128;SDS011;10722;51.910;8.352;2022-07-23T14:33:00;5.30;;;1.70;;
21128;SDS011;10722;51.910;8.352;2022-07-23T14:35:45;5.57;;;1.70;;
21128;SDS011;10722;51.910;8.352;2022-07-23T14:38:31;7.43;;;1.60;;
21128;SDS011;10722;51.910;8.352;2022-07-23T14:41:16;5.82;;;1.60;;
21128;SDS011;10722;51.910;8.352;2022-07-23T14:44:02;4.47;;;1.58;;
21128;SDS011;10722;51.910;8.352;2022-07-23T14:46:49;3.05;;;1.38;;
21128;SDS011;10722;51.910;8.352;2022-07-23T14:49:34;8.90;;;1.70;;
21128;SDS011;10722;51.910;8.352;2022-07-23T14:52:20;16.48;;;8.52;;
21128;SDS011;10722;51.910;8.352;2022-07-23T14:55:06;4.85;;;1.80;;
21128;SDS011;10722;51.910;8.352;2022-07-23T14:57:51;7.72;;;2.83;;
21128;SDS011;10722;51.910;8.352;2022-07-23T15:00:36;6.68;;;1.60;;
21128;SDS011;10722;51.910;8.352;2022-07-23T15:03:22;6.78;;;1.70;;
21128;SDS011;10722;51.910;8.352;2022-07-23T15:06:19;5.40;;;1.60;;
21128;SDS011;10722;51.910;8.352;2022-07-23T15:09:05;5.18;;;1.60;;
21128;SDS011;10722;51.910;8.352;2022-07-23T15:31:21;11.70;;;6.13;;
21128;SDS011;10722;51.910;8.352;2022-07-23T15:34:13;9.30;;;2.60;;
21128;SDS011;10722;51.910;8.352;2022-07-23T15:36:59;5.28;;;1.75;;
21128;SDS011;10722;51.910;8.352;2022-07-23T15:39:45;6.22;;;2.08;;
21128;SDS011;10722;51.910;8.352;2022-07-23T15:42:31;6.90;;;2.00;;
21128;SDS011;10722;51.910;8.352;2022-07-23T15:45:16;5.57;;;1.90;;
21128;SDS011;10722;51.910;8.352;2022-07-23T15:48:02;6.30;;;2.00;;
21128;SDS011;10722;51.910;8.352;2022-07-23T15:50:48;7.32;;;3.10;;
21128;SDS011;10722;51.910;8.352;2022-07-23T15:53:35;4.03;;;2.00;;
21128;SDS011;10722;51.910;8.352;2022-07-23T15:56:21;5.38;;;1.90;;
21128;SDS011;10722;51.910;8.352;2022-07-23T15:59:07;6.80;;;2.05;;
21128;SDS011;10722;51.910;8.352;2022-07-23T16:01:53;6.63;;;1.90;;
21128;SDS011;10722;51.910;8.352;2022-07-23T16:04:38;6.90;;;1.98;;
21128;SDS011;10722;51.910;8.352;2022-07-23T16:07:24;3.22;;;1.70;;
21128;SDS011;10722;51.910;8.352;2022-07-23T16:10:09;4.47;;;1.95;;
21128;SDS011;10722;51.910;8.352;2022-07-23T16:12:55;5.95;;;1.88;;
21128;SDS011;10722;51.910;8.352;2022-07-23T16:15:40;5.55;;;1.85;;
21128;SDS011;10722;51.910;8.352;2022-07-23T16:18:26;5.75;;;1.80;;
21128;SDS011;10722;51.910;8.352;2022-07-23T16:21:12;4.88;;;1.88;;
21128;SDS011;10722;51.910;8.352;2022-07-23T16:24:00;11.63;;;3.40;;
21128;SDS011;10722;51.910;8.352;2022-07-23T16:26:45;8.27;;;3.00;;
21128;SDS011;10722;51.910;8.352;2022-07-23T16:29:31;11.95;;;3.75;;
21128;SDS011;10722;51.910;8.352;2022-07-23T16:32:16;8.98;;;3.55;;
21128;SDS011;10722;51.910;8.352;2022-07-23T16:35:01;6.53;;;2.25;;
21128;SDS011;10722;51.910;8.352;2022-07-23T16:37:58;8.32;;;2.20;;
21128;SDS011;10722;51.910;8.352;2022-07-23T16:40:43;4.55;;;1.80;;
21128;SDS011;10722;51.910;8.352;2022-07-23T16:43:29;5.18;;;2.00;;
21128;SDS011;10722;51.910;8.352;2022-07-23T16:46:14;6.15;;;1.70;;
21128;SDS011;10722;51.910;8.352;2022-07-23T16:49:00;5.68;;;2.00;;
21128;SDS011;10722;51.910;8.352;2022-07-23T16:51:46;6.35;;;2.17;;
21128;SDS011;10722;51.910;8.352;2022-07-23T16:54:31;9.93;;;3.28;;
21128;SDS011;10722;51.910;8.352;2022-07-23T16:57:16;6.68;;;2.40;;
21128;SDS011;10722;51.910;8.352;2022-07-23T17:00:02;9.43;;;1.98;;
21128;SDS011;10722;51.910;8.352;2022-07-23T17:02:49;6.57;;;2.17;;
21128;SDS011;10722;51.910;8.352;2022-07-23T17:05:34;4.32;;;2.00;;
21128;SDS011;10722;51.910;8.352;2022-07-23T17:08:19;6.03;;;2.30;;
21128;SDS011;10722;51.910;8.352;2022-07-23T17:11:04;6.38;;;2.30;;
21128;SDS011;10722;51.910;8.352;2022-07-23T17:13:50;5.70;;;1.92;;
21128;SDS011;10722;51.910;8.352;2022-07-23T17:16:35;6.40;;;1.70;;
21128;SDS011;10722;51.910;8.352;2022-07-23T17:19:21;5.55;;;1.80;;